Orenge 7 — JL6148 — position and weather

sailwx.info

Track history (hours):
 
Tides and Currents Weather Stations Pressure Air Temp Water Temp Dewpoint Dewpoint Depression Visibility Wind Speed Wind Dir Waves Ship Positions

Orenge 7

Last reported at 2014-Sep-16 14:33 UTC. Time now 2014-Sep-17 13:34 UTC.
Position N 34°37' E 134°56'.

Length 163 m; draft 4.9 m.

Type: Passenger vessel. MMSI: 431500186.

Date/timePositionNaut miles runAvg speedWind from/ knotsBaromVisibWave heightAir tempDewpointWater temp
2014-Sep-16 14:33N 34°37' E 134°56'1817.9
2014-Sep-16 13:33N 34°36' E 135°18'7 4.9
2014-Sep-16 12:11N 34°37' E 135°26'0 0.0
2014-Sep-16 11:30N 34°37' E 135°26'0 0.0
2014-Sep-16 10:23N 34°37' E 135°26'0 0.0
2014-Sep-16 09:29N 34°37' E 135°26'0 0.0
2014-Sep-16 08:30N 34°37' E 135°26'0 0.0
2014-Sep-16 07:29N 34°37' E 135°26'0 0.0
2014-Sep-16 06:11N 34°37' E 135°26'0 0.0
2014-Sep-16 05:30N 34°37' E 135°26'0 0.0
2014-Sep-16 04:29N 34°37' E 135°26'0 0.0
2014-Sep-16 03:30N 34°37' E 135°26'0 0.0
2014-Sep-16 02:29N 34°37' E 135°26'0 0.0
2014-Sep-16 01:23N 34°37' E 135°26'0 0.0
2014-Sep-16 00:12N 34°37' E 135°26'0 0.0
2014-Sep-15 23:29N 34°37' E 135°26'0 0.0
2014-Sep-15 21:23N 34°37' E 135°26'6 6.9
2014-Sep-15 20:33N 34°36' E 135°19'1918.6
2014-Sep-15 19:33N 34°36' E 134°56'1 0.0
2014-Sep-14 14:33N 34°37' E 134°57'1818.4
2014-Sep-14 13:33N 34°37' E 135°19'6 5.5
2014-Sep-14 12:31N 34°37' E 135°26'0 0.0
2014-Sep-14 11:31N 34°37' E 135°26'0 0.0
2014-Sep-14 10:31N 34°37' E 135°26'0 0.0
2014-Sep-14 09:31N 34°37' E 135°26'0 0.0
2014-Sep-14 08:31N 34°37' E 135°26'0 0.0
2014-Sep-14 07:31N 34°37' E 135°26'0 0.0
2014-Sep-14 06:31N 34°37' E 135°26'0 0.0
2014-Sep-14 05:31N 34°37' E 135°26'0 0.0
2014-Sep-14 04:31N 34°37' E 135°26'0 0.0
2014-Sep-14 03:31N 34°37' E 135°26'0 0.0
2014-Sep-14 02:31N 34°37' E 135°26'0 0.0
2014-Sep-14 01:31N 34°37' E 135°26'0 0.0
2014-Sep-13 21:31N 34°37' E 135°26'6 6.1
2014-Sep-13 20:33N 34°36' E 135°19'1717.3
2014-Sep-13 19:33N 34°37' E 134°58'2 0.1
2014-Sep-12 14:33N 34°37' E 134°56'1919.0
2014-Sep-12 13:33N 34°37' E 135°19'6 5.3
2014-Sep-12 12:28N 34°37' E 135°26'0 0.0
2014-Sep-12 11:28N 34°37' E 135°26'0 0.0
2014-Sep-12 10:22N 34°37' E 135°26'0 0.0
2014-Sep-12 09:28N 34°37' E 135°26'0 0.0
2014-Sep-12 08:28N 34°37' E 135°26'0 0.0
2014-Sep-12 07:16N 34°37' E 135°26'0 0.0
2014-Sep-12 06:28N 34°37' E 135°26'0 0.0
2014-Sep-12 05:28N 34°37' E 135°26'0 0.0
2014-Sep-12 04:22N 34°37' E 135°26'0 0.0
2014-Sep-12 03:28N 34°37' E 135°26'0 0.0
2014-Sep-12 02:28N 34°37' E 135°26'0 0.0
2014-Sep-12 01:28N 34°37' E 135°26'0 0.0
2014-Sep-12 00:28N 34°37' E 135°26'0 0.0
2014-Sep-11 23:28N 34°37' E 135°26'0 0.0
2014-Sep-11 22:28N 34°37' E 135°26'0 0.0
2014-Sep-11 21:28N 34°37' E 135°26'5 5.9
2014-Sep-11 20:33N 34°36' E 135°19'1817.6
2014-Sep-11 19:33N 34°37' E 134°58'2 0.1
2014-Sep-10 14:33N 34°36' E 134°56'1818.4
2014-Sep-10 13:33N 34°37' E 135°18'6 5.9
2014-Sep-10 12:29N 34°37' E 135°26'0 0.0
2014-Sep-10 11:29N 34°37' E 135°26'0 0.0
2014-Sep-10 10:29N 34°37' E 135°26'0 0.0
2014-Sep-10 09:29N 34°37' E 135°26'0 0.0
2014-Sep-10 08:29N 34°37' E 135°26'0 0.0
2014-Sep-10 07:29N 34°37' E 135°26'0 0.0
2014-Sep-10 06:29N 34°37' E 135°26'0 0.0
2014-Sep-10 05:29N 34°37' E 135°26'0 0.0
2014-Sep-10 03:29N 34°37' E 135°26'0 0.0
2014-Sep-10 02:29N 34°37' E 135°26'0 0.0
2014-Sep-10 01:29N 34°37' E 135°26'0 0.0
2014-Sep-10 00:29N 34°37' E 135°26'0 0.0
2014-Sep-09 23:29N 34°37' E 135°26'0 0.0
2014-Sep-09 22:29N 34°37' E 135°26'0 0.0
2014-Sep-09 21:29N 34°37' E 135°26'6 6.6
2014-Sep-09 20:33N 34°35' E 135°19'1717.2
2014-Sep-09 19:33N 34°37' E 134°58'1817.1
2014-Sep-09 18:30N 34°30' E 134°38'18 0.6
2014-Sep-08 14:33N 34°37' E 134°57'1817.7
2014-Sep-08 13:33N 34°36' E 135°18'6 6.1
2014-Sep-08 12:31N 34°37' E 135°26'0 0.0
2014-Sep-08 11:25N 34°37' E 135°26'0 0.0
2014-Sep-08 10:31N 34°37' E 135°26'0 0.0
2014-Sep-08 09:31N 34°37' E 135°26'0 0.0
2014-Sep-08 08:31N 34°37' E 135°26'0 0.0
2014-Sep-08 07:31N 34°37' E 135°26'0 0.0
2014-Sep-08 06:25N 34°37' E 135°26'0 0.0
2014-Sep-08 05:19N 34°37' E 135°26'0 0.0
2014-Sep-08 04:25N 34°37' E 135°26'0 0.0
2014-Sep-08 03:25N 34°37' E 135°26'0 0.0
2014-Sep-08 02:31N 34°37' E 135°26'0 0.0
2014-Sep-08 00:24N 34°37' E 135°26'0 0.0
2014-Sep-07 23:30N 34°37' E 135°26'0 0.0
2014-Sep-07 21:24N 34°37' E 135°26'7 8.7
2014-Sep-07 20:33N 34°35' E 135°17'1717.2
2014-Sep-07 19:34N 34°36' E 134°56'1918.0
2014-Sep-07 18:30N 34°28' E 134°36'19 0.7
2014-Sep-06 14:34N 34°37' E 134°56'  
Track history (hours):
 
Tides and Currents Weather Stations Pressure Air Temp Water Temp Dewpoint Dewpoint Depression Visibility Wind Speed Wind Dir Waves Ship Positions

Orenge 7

Last reported at 2014-Sep-16 14:33 UTC. Time now 2014-Sep-17 13:34 UTC.
Position N 34°37' E 134°56'.

Length 163 m; draft 4.9 m.

Type: Passenger vessel. MMSI: 431500186.

Date/timePositionNaut miles runAvg speedWind from/ knotsBaromVisibWave heightAir tempDewpointWater temp
2014-Sep-16 14:33N 34°37' E 134°56'1817.9
2014-Sep-16 13:33N 34°36' E 135°18'7 4.9
2014-Sep-16 12:11N 34°37' E 135°26'0 0.0
2014-Sep-16 11:30N 34°37' E 135°26'0 0.0
2014-Sep-16 10:23N 34°37' E 135°26'0 0.0
2014-Sep-16 09:29N 34°37' E 135°26'0 0.0
2014-Sep-16 08:30N 34°37' E 135°26'0 0.0
2014-Sep-16 07:29N 34°37' E 135°26'0 0.0
2014-Sep-16 06:11N 34°37' E 135°26'0 0.0
2014-Sep-16 05:30N 34°37' E 135°26'0 0.0
2014-Sep-16 04:29N 34°37' E 135°26'0 0.0
2014-Sep-16 03:30N 34°37' E 135°26'0 0.0
2014-Sep-16 02:29N 34°37' E 135°26'0 0.0
2014-Sep-16 01:23N 34°37' E 135°26'0 0.0
2014-Sep-16 00:12N 34°37' E 135°26'0 0.0
2014-Sep-15 23:29N 34°37' E 135°26'0 0.0
2014-Sep-15 21:23N 34°37' E 135°26'6 6.9
2014-Sep-15 20:33N 34°36' E 135°19'1918.6
2014-Sep-15 19:33N 34°36' E 134°56'1 0.0
2014-Sep-14 14:33N 34°37' E 134°57'1818.4
2014-Sep-14 13:33N 34°37' E 135°19'6 5.5
2014-Sep-14 12:31N 34°37' E 135°26'0 0.0
2014-Sep-14 11:31N 34°37' E 135°26'0 0.0
2014-Sep-14 10:31N 34°37' E 135°26'0 0.0
2014-Sep-14 09:31N 34°37' E 135°26'0 0.0
2014-Sep-14 08:31N 34°37' E 135°26'0 0.0
2014-Sep-14 07:31N 34°37' E 135°26'0 0.0
2014-Sep-14 06:31N 34°37' E 135°26'0 0.0
2014-Sep-14 05:31N 34°37' E 135°26'0 0.0
2014-Sep-14 04:31N 34°37' E 135°26'0 0.0
2014-Sep-14 03:31N 34°37' E 135°26'0 0.0
2014-Sep-14 02:31N 34°37' E 135°26'0 0.0
2014-Sep-14 01:31N 34°37' E 135°26'0 0.0
2014-Sep-13 21:31N 34°37' E 135°26'6 6.1
2014-Sep-13 20:33N 34°36' E 135°19'1717.3
2014-Sep-13 19:33N 34°37' E 134°58'2 0.1
2014-Sep-12 14:33N 34°37' E 134°56'1919.0
2014-Sep-12 13:33N 34°37' E 135°19'6 5.3
2014-Sep-12 12:28N 34°37' E 135°26'0 0.0
2014-Sep-12 11:28N 34°37' E 135°26'0 0.0
2014-Sep-12 10:22N 34°37' E 135°26'0 0.0
2014-Sep-12 09:28N 34°37' E 135°26'0 0.0
2014-Sep-12 08:28N 34°37' E 135°26'0 0.0
2014-Sep-12 07:16N 34°37' E 135°26'0 0.0
2014-Sep-12 06:28N 34°37' E 135°26'0 0.0
2014-Sep-12 05:28N 34°37' E 135°26'0 0.0
2014-Sep-12 04:22N 34°37' E 135°26'0 0.0
2014-Sep-12 03:28N 34°37' E 135°26'0 0.0
2014-Sep-12 02:28N 34°37' E 135°26'0 0.0
2014-Sep-12 01:28N 34°37' E 135°26'0 0.0
2014-Sep-12 00:28N 34°37' E 135°26'0 0.0
2014-Sep-11 23:28N 34°37' E 135°26'0 0.0
2014-Sep-11 22:28N 34°37' E 135°26'0 0.0
2014-Sep-11 21:28N 34°37' E 135°26'5 5.9
2014-Sep-11 20:33N 34°36' E 135°19'1817.6
2014-Sep-11 19:33N 34°37' E 134°58'2 0.1
2014-Sep-10 14:33N 34°36' E 134°56'1818.4
2014-Sep-10 13:33N 34°37' E 135°18'6 5.9
2014-Sep-10 12:29N 34°37' E 135°26'0 0.0
2014-Sep-10 11:29N 34°37' E 135°26'0 0.0
2014-Sep-10 10:29N 34°37' E 135°26'0 0.0
2014-Sep-10 09:29N 34°37' E 135°26'0 0.0
2014-Sep-10 08:29N 34°37' E 135°26'0 0.0
2014-Sep-10 07:29N 34°37' E 135°26'0 0.0
2014-Sep-10 06:29N 34°37' E 135°26'0 0.0
2014-Sep-10 05:29N 34°37' E 135°26'0 0.0
2014-Sep-10 03:29N 34°37' E 135°26'0 0.0
2014-Sep-10 02:29N 34°37' E 135°26'0 0.0
2014-Sep-10 01:29N 34°37' E 135°26'0 0.0
2014-Sep-10 00:29N 34°37' E 135°26'0 0.0
2014-Sep-09 23:29N 34°37' E 135°26'0 0.0
2014-Sep-09 22:29N 34°37' E 135°26'0 0.0
2014-Sep-09 21:29N 34°37' E 135°26'6 6.6
2014-Sep-09 20:33N 34°35' E 135°19'1717.2
2014-Sep-09 19:33N 34°37' E 134°58'1817.1
2014-Sep-09 18:30N 34°30' E 134°38'18 0.6
2014-Sep-08 14:33N 34°37' E 134°57'1817.7
2014-Sep-08 13:33N 34°36' E 135°18'6 6.1
2014-Sep-08 12:31N 34°37' E 135°26'0 0.0
2014-Sep-08 11:25N 34°37' E 135°26'0 0.0
2014-Sep-08 10:31N 34°37' E 135°26'0 0.0
2014-Sep-08 09:31N 34°37' E 135°26'0 0.0
2014-Sep-08 08:31N 34°37' E 135°26'0 0.0
2014-Sep-08 07:31N 34°37' E 135°26'0 0.0
2014-Sep-08 06:25N 34°37' E 135°26'0 0.0
2014-Sep-08 05:19N 34°37' E 135°26'0 0.0
2014-Sep-08 04:25N 34°37' E 135°26'0 0.0
2014-Sep-08 03:25N 34°37' E 135°26'0 0.0
2014-Sep-08 02:31N 34°37' E 135°26'0 0.0
2014-Sep-08 00:24N 34°37' E 135°26'0 0.0
2014-Sep-07 23:30N 34°37' E 135°26'0 0.0
2014-Sep-07 21:24N 34°37' E 135°26'7 8.7
2014-Sep-07 20:33N 34°35' E 135°17'1717.2
2014-Sep-07 19:34N 34°36' E 134°56'1918.0
2014-Sep-07 18:30N 34°28' E 134°36'19 0.7
2014-Sep-06 14:34N 34°37' E 134°56'  

Dump ship's entire track history